PHL weather

Philadelphia International Airport
Philadelphia, Pennsylvania, United States

Public forecast

Using degrees Fahrenheit for public forecast. Weather courtesy of forecast.io.

METAR (pilot weather report)

Retrieved 2017/08/16 19:54 UTC (1 hour ago):

KPHL 161954Z 34009G16KT 10SM SCT055 SCT300 31/18 A2997 RMK AO2 SLP146 T03060178 $

TAF (pilot weather forecast)

Retrieved 2017/08/16 18:22 UTC (3 hours ago):

TAF KPHL 161720Z 1618/1724 30005KT P6SM FEW040 SCT250 FM162000 30008KT P6SM BKN050 FM170200 VRB02KT P6SM SKC FM171300 VRB03KT P6SM SCT050 BKN070 FM171600 13005KT P6SM BKN050 BKN070 FM172000 18007KT P6SM BKN040 OVC070